Wall Blake, Anguilla

7:09 PM AST on July 02, 2015 (GMT -0400)
West End, Anguilla | | Change Station
CLOSE
Current Station
Personal Weather Station
Location: Anguilla,
Elevation: 46 ft
Nearby Weather Stations

Elev 46 ft 18.17 °N, 63.15 °W | Updated 9 minutes ago

Mostly Cloudy
Mostly Cloudy
81.4 °F
Feels Like 87 °F
N
9.0
Wind Variable Wind from East
Gusts 9.0 mph

Today
High -- | Low -- °F
--% Chance of Precip.
Yesterday
High -- | Low -- °F
Precip. -- in
5:40 AM 6:52 PM
Full, 99% visible
Pressure 30.06 in
Visibility 6.2 miles
Clouds Mostly Cloudy 2200 ft
Heat Index 87 °F
Dew Point 73 °F
Humidity 76%
Rainfall 0.00 in
Snow Depth Not available.
UV 0 out of 12
Pollen Not available.
Air Quality Not available.
Flu Activity Not available.
METAR TNCM 022300Z 07009KT 040V120 9999 BKN022 28/22 Q1018 A3006 NOSIG RMK WDSPRD HZ

More Conditions Fewer Conditions

Pressure 30.06 in
Visibility 6.2 miles
Clouds Mostly Cloudy 2200 ft
Heat Index 87 °F
Dew Point 73 °F
Humidity 76%
Rainfall 0.00 in
Snow Depth Not available.
UV 0 out of 12
Pollen Not available.
Air Quality Not available.
Flu Activity Not available.
METAR TNCM 022300Z 07009KT 040V120 9999 BKN022 28/22 Q1018 A3006 NOSIG RMK WDSPRD HZ

More Conditions Fewer Conditions

10-Day Weather Forecast

×

Almanac

Astronomy

Jul. 02, 2015 Rise Set
Actual Time
Civil Twilight
Nautical Twilight
Astronomical Twilight
Moon
Length of Visible Light
Length of Day
Tomorrow will be .
, % of the Moon is Illuminated

Today's Extremes

Country Highs Country Lows

Community

WunderPhotos

Upload Photos

1,834,564 photos uploaded!

WunderBlogs® & News

Nearby

Air Quality

  Air Quality AQ Index Pollutant
Not available.

Snow Depth

Station Depth Elevation

Earthquake Activity

City Distance Mag. Time & Date
Minimum magnitude displayed is 2.5.

Coastal Water Temperatures

Place Temperature

Stations

Nearby Weather Stations

Station Location Temp. Windchill Dew Point Humidity Wind Precip. Elev Updated Type